Time;durP1;ratioP1;P1;durP2;ratioP2;P2;SDS_P1;SDS_P2;PMS_P1;PMS_P2;Temp;Humidity;BMP_temperature;BMP_pressure;BME280_temperature;BME280_humidity;BME280_pressure;Samples;Min_cycle;Max_cycle;Signal;HPM_P1;HPM_P2
2022/03/08 00:00:12;;;;;;;9.68;4.80;;;1.90;99.90;;;;;;4941587;28;20131;-64
2022/03/08 00:02:38;;;;;;;6.80;4.78;;;1.90;99.90;;;;;;4941304;28;20067;-64
2022/03/08 00:05:05;;;;;;;9.80;4.55;;;1.90;99.90;;;;;;4930978;28;20058;-64
2022/03/08 00:07:31;;;;;;;8.80;5.22;;;1.90;99.90;;;;;;4939977;28;20107;-64
2022/03/08 00:09:57;;;;;;;6.03;4.68;;;1.90;99.90;;;;;;4940008;28;20048;-64
2022/03/08 00:12:22;;;;;;;6.78;4.90;;;1.90;99.90;;;;;;4932287;28;20058;-65
2022/03/08 00:14:48;;;;;;;8.40;4.93;;;1.80;99.90;;;;;;4931243;28;20693;-64
2022/03/08 00:17:14;;;;;;;7.25;4.70;;;1.80;99.90;;;;;;4941651;28;20504;-65
2022/03/08 00:19:40;;;;;;;6.80;5.00;;;1.80;99.90;;;;;;4922603;28;20054;-64
2022/03/08 00:22:06;;;;;;;7.07;5.20;;;1.70;99.90;;;;;;4926993;29;20043;-64
2022/03/08 00:24:32;;;;;;;7.32;4.85;;;1.70;99.90;;;;;;4929784;28;20457;-65
2022/03/08 00:26:57;;;;;;;9.45;5.25;;;1.70;99.90;;;;;;4925441;28;20478;-65
2022/03/08 00:29:23;;;;;;;7.32;5.30;;;1.70;99.90;;;;;;4927944;28;20494;-64
2022/03/08 00:31:49;;;;;;;8.25;5.50;;;1.70;99.90;;;;;;4929432;28;20132;-65
2022/03/08 00:34:16;;;;;;;8.75;5.70;;;1.70;99.90;;;;;;4942466;28;20043;-65
2022/03/08 00:36:41;;;;;;;7.32;5.13;;;1.70;99.90;;;;;;4926626;28;22308;-65
2022/03/08 00:39:07;;;;;;;7.65;5.15;;;1.70;99.90;;;;;;4942991;28;20497;-65
2022/03/08 00:41:33;;;;;;;6.30;4.88;;;1.70;99.90;;;;;;4943277;28;20057;-64
2022/03/08 00:43:59;;;;;;;8.27;5.78;;;1.70;99.90;;;;;;4945582;28;20043;-64
2022/03/08 00:46:25;;;;;;;9.48;5.65;;;1.70;99.90;;;;;;4932706;28;20137;-64
2022/03/08 00:48:50;;;;;;;8.77;5.05;;;1.60;99.90;;;;;;4927356;28;20051;-65
2022/03/08 00:51:16;;;;;;;9.38;5.50;;;1.60;99.90;;;;;;4941584;28;20057;-64
2022/03/08 00:53:43;;;;;;;7.70;5.30;;;1.60;99.90;;;;;;4927533;28;20155;-65
2022/03/08 00:56:09;;;;;;;9.30;5.85;;;1.60;99.90;;;;;;4959660;28;20117;-64
2022/03/08 00:58:36;;;;;;;9.88;6.00;;;1.60;99.90;;;;;;4912247;29;20059;-64
2022/03/08 01:01:03;;;;;;;13.40;6.15;;;1.60;99.90;;;;;;4910040;28;20051;-64
2022/03/08 01:03:29;;;;;;;9.55;5.78;;;1.60;99.90;;;;;;4905757;28;20039;-64
2022/03/08 01:05:55;;;;;;;8.77;5.68;;;1.60;99.90;;;;;;4942398;28;20118;-65
2022/03/08 01:08:21;;;;;;;8.98;6.35;;;1.50;99.90;;;;;;4943343;28;20576;-64
2022/03/08 01:10:47;;;;;;;7.93;5.88;;;1.50;99.90;;;;;;4941935;28;20112;-65
2022/03/08 01:13:13;;;;;;;8.93;6.00;;;1.50;99.90;;;;;;4942606;28;20077;-65
2022/03/08 01:15:38;;;;;;;11.15;6.15;;;1.50;99.90;;;;;;4942246;28;20561;-65
2022/03/08 01:18:04;;;;;;;10.25;6.30;;;1.50;99.90;;;;;;4950587;28;20062;-64
2022/03/08 01:20:30;;;;;;;9.68;6.05;;;1.50;99.90;;;;;;4942138;28;20126;-64
2022/03/08 01:22:56;;;;;;;11.02;6.82;;;1.40;99.90;;;;;;4958238;28;20413;-64
2022/03/08 01:25:23;;;;;;;8.30;6.18;;;1.40;99.90;;;;;;4925963;28;20051;-64
2022/03/08 01:27:50;;;;;;;12.15;6.78;;;1.40;99.90;;;;;;4918148;29;20051;-64
2022/03/08 01:30:19;;;;;;;9.00;6.53;;;1.30;99.90;;;;;;4927956;28;20051;-64
2022/03/08 01:32:45;;;;;;;12.90;6.80;;;1.30;99.90;;;;;;4924260;28;20055;-64
2022/03/08 01:35:12;;;;;;;8.68;6.45;;;1.30;99.90;;;;;;4926939;28;20114;-64
2022/03/08 01:37:38;;;;;;;10.50;6.75;;;1.30;99.90;;;;;;4940864;28;20047;-64
2022/03/08 01:40:05;;;;;;;11.35;6.90;;;1.30;99.90;;;;;;4941070;28;20050;-65
2022/03/08 01:42:31;;;;;;;9.40;6.82;;;1.30;99.90;;;;;;4926270;28;20050;-64
2022/03/08 01:44:57;;;;;;;9.73;6.78;;;1.30;99.90;;;;;;4942060;28;20051;-65
2022/03/08 01:47:25;;;;;;;9.45;7.03;;;1.30;99.90;;;;;;4942102;28;20062;-64
2022/03/08 01:49:53;;;;;;;10.10;6.95;;;1.30;99.90;;;;;;4928108;28;20789;-65
2022/03/08 01:52:23;;;;;;;11.55;7.07;;;1.30;99.90;;;;;;4925215;28;20571;-64
2022/03/08 01:54:50;;;;;;;12.13;8.05;;;1.30;99.90;;;;;;4908247;28;20035;-65
2022/03/08 01:57:16;;;;;;;11.43;7.80;;;1.20;99.90;;;;;;4958672;28;20071;-64
2022/03/08 01:59:42;;;;;;;11.40;7.20;;;1.20;99.90;;;;;;4941162;28;20794;-64
2022/03/08 02:02:09;;;;;;;10.38;7.00;;;1.20;99.90;;;;;;4926294;29;20133;-64
2022/03/08 02:04:35;;;;;;;11.13;7.50;;;1.20;99.90;;;;;;4942922;28;20851;-64
2022/03/08 02:07:02;;;;;;;10.32;7.85;;;1.20;99.90;;;;;;4927325;28;20043;-65
2022/03/08 02:09:27;;;;;;;13.68;7.88;;;1.20;99.90;;;;;;4922580;28;20039;-64
2022/03/08 02:11:53;;;;;;;13.88;8.27;;;1.10;99.90;;;;;;4942903;28;20577;-65
2022/03/08 02:14:19;;;;;;;13.30;8.30;;;1.10;99.90;;;;;;4912765;28;20402;-65
2022/03/08 02:16:46;;;;;;;13.93;8.90;;;1.20;99.90;;;;;;4925596;28;20087;-64
2022/03/08 02:19:15;;;;;;;13.68;8.75;;;1.10;99.90;;;;;;4909942;28;20051;-65
2022/03/08 02:21:43;;;;;;;15.00;8.50;;;1.20;99.90;;;;;;4925953;28;20051;-64
2022/03/08 02:24:09;;;;;;;14.57;8.65;;;1.10;99.90;;;;;;4933518;28;20062;-65
2022/03/08 02:26:36;;;;;;;12.98;8.75;;;1.10;99.90;;;;;;4930587;28;20103;-65
2022/03/08 02:29:04;;;;;;;14.40;8.70;;;1.10;99.90;;;;;;4909261;28;20110;-65
2022/03/08 02:31:30;;;;;;;15.73;9.00;;;1.20;99.90;;;;;;4940624;28;20538;-65
2022/03/08 02:33:56;;;;;;;13.77;9.10;;;1.10;99.90;;;;;;4942175;28;20102;-64
2022/03/08 02:36:22;;;;;;;14.55;8.75;;;1.20;99.90;;;;;;4923755;28;20059;-64
2022/03/08 02:38:49;;;;;;;13.52;9.57;;;1.20;99.90;;;;;;4932130;28;20055;-64
2022/03/08 02:41:15;;;;;;;15.05;8.98;;;1.20;99.90;;;;;;4942421;28;20482;-65
2022/03/08 02:43:41;;;;;;;15.77;9.40;;;1.20;99.90;;;;;;4942993;28;20058;-65
2022/03/08 02:46:07;;;;;;;19.33;9.30;;;1.20;99.90;;;;;;4938609;28;20047;-64
2022/03/08 02:48:32;;;;;;;14.73;9.52;;;1.20;99.90;;;;;;4940750;28;20066;-64
2022/03/08 02:50:58;;;;;;;14.90;9.35;;;1.20;99.90;;;;;;4915892;29;20082;-65
2022/03/08 02:53:24;;;;;;;16.08;9.63;;;1.20;99.90;;;;;;4914512;29;20493;-64
2022/03/08 02:55:50;;;;;;;14.98;9.93;;;1.20;99.90;;;;;;4919963;28;23547;-64
2022/03/08 02:58:16;;;;;;;15.10;9.55;;;1.20;99.90;;;;;;4932551;28;20473;-65
2022/03/08 03:00:42;;;;;;;15.82;9.85;;;1.20;99.90;;;;;;4925267;28;20503;-64
2022/03/08 03:03:09;;;;;;;15.50;9.35;;;1.20;99.90;;;;;;4915944;29;20513;-64
2022/03/08 03:05:35;;;;;;;15.20;9.95;;;1.10;99.90;;;;;;4938221;28;20105;-64
2022/03/08 03:08:03;;;;;;;15.77;9.70;;;1.10;99.90;;;;;;4956371;28;20058;-64
2022/03/08 03:10:29;;;;;;;17.23;10.18;;;1.10;99.90;;;;;;4956420;28;20078;-64
2022/03/08 03:12:56;;;;;;;16.42;10.75;;;1.20;99.90;;;;;;4957145;28;20190;-64
2022/03/08 03:15:23;;;;;;;13.15;9.63;;;1.10;99.90;;;;;;4939339;28;20467;-63
2022/03/08 03:17:49;;;;;;;17.00;10.50;;;1.10;99.90;;;;;;4893195;29;20051;-64
2022/03/08 03:20:18;;;;;;;15.25;9.85;;;1.10;99.90;;;;;;4925509;28;20055;-64
2022/03/08 03:22:45;;;;;;;16.50;10.25;;;1.10;99.90;;;;;;4930323;28;20055;-64
2022/03/08 03:25:11;;;;;;;16.00;10.25;;;1.10;99.90;;;;;;4928764;28;20062;-64
2022/03/08 03:27:38;;;;;;;19.02;11.27;;;1.10;99.90;;;;;;4925991;28;20062;-64
2022/03/08 03:30:07;;;;;;;16.00;10.88;;;1.10;99.90;;;;;;4924669;28;20042;-65
2022/03/08 03:32:33;;;;;;;17.20;10.93;;;1.10;99.90;;;;;;4940174;28;20055;-64
2022/03/08 03:35:00;;;;;;;16.33;10.85;;;1.10;99.90;;;;;;4910770;28;20070;-65
2022/03/08 03:37:26;;;;;;;18.15;11.27;;;1.10;99.90;;;;;;4924828;29;20053;-65
2022/03/08 03:39:52;;;;;;;19.13;11.45;;;1.10;99.90;;;;;;4955459;28;20047;-64
2022/03/08 03:42:18;;;;;;;18.55;11.23;;;1.10;99.90;;;;;;4925951;28;20628;-65
2022/03/08 03:44:44;;;;;;;15.93;10.38;;;1.10;99.90;;;;;;4927022;28;20153;-64
2022/03/08 03:47:10;;;;;;;14.80;10.68;;;1.10;99.90;;;;;;4923741;28;20158;-64
2022/03/08 03:49:36;;;;;;;17.73;11.60;;;1.10;99.90;;;;;;4932830;28;20043;-65
2022/03/08 03:52:03;;;;;;;17.08;11.68;;;1.10;99.90;;;;;;4906014;28;20051;-64
2022/03/08 03:54:28;;;;;;;18.27;11.95;;;1.00;99.90;;;;;;4940844;28;20058;-64
2022/03/08 03:56:54;;;;;;;15.77;10.70;;;1.10;99.90;;;;;;4930224;28;20051;-65
2022/03/08 03:59:20;;;;;;;17.60;11.75;;;1.00;99.90;;;;;;4924356;28;20490;-64
2022/03/08 04:01:46;;;;;;;16.00;11.35;;;1.00;99.90;;;;;;4894155;28;20138;-63
2022/03/08 04:04:12;;;;;;;19.00;11.35;;;1.00;99.90;;;;;;4932709;28;20095;-65
2022/03/08 04:06:38;;;;;;;17.73;11.82;;;1.00;99.90;;;;;;4944021;28;20758;-64
2022/03/08 04:09:04;;;;;;;16.73;11.50;;;1.10;99.90;;;;;;4927337;28;20756;-65
2022/03/08 04:11:30;;;;;;;17.77;11.30;;;1.00;99.90;;;;;;4943773;28;20051;-65
2022/03/08 04:13:57;;;;;;;18.83;11.50;;;1.00;99.90;;;;;;4926146;28;20102;-64
2022/03/08 04:16:23;;;;;;;19.40;12.10;;;1.00;99.90;;;;;;4934015;28;20047;-64
2022/03/08 04:18:48;;;;;;;17.05;11.80;;;1.00;99.90;;;;;;4945482;28;20406;-64
2022/03/08 04:21:14;;;;;;;18.08;12.18;;;1.00;99.90;;;;;;4942254;28;20051;-65
2022/03/08 04:23:40;;;;;;;20.38;12.18;;;1.00;99.90;;;;;;4946791;28;20431;-64
2022/03/08 04:26:06;;;;;;;17.95;12.45;;;0.90;99.90;;;;;;4925754;28;20051;-64
2022/03/08 04:28:31;;;;;;;19.35;12.85;;;0.90;99.90;;;;;;4927970;29;20136;-64
2022/03/08 04:30:57;;;;;;;18.00;11.73;;;0.90;99.90;;;;;;4925414;28;20549;-64
2022/03/08 04:33:23;;;;;;;16.77;11.85;;;0.90;99.90;;;;;;4950676;28;20070;-64
2022/03/08 04:35:49;;;;;;;18.60;11.82;;;0.90;99.90;;;;;;4934935;28;20066;-63
2022/03/08 04:38:15;;;;;;;17.13;12.63;;;0.90;99.90;;;;;;4928118;28;20054;-64
2022/03/08 04:40:41;;;;;;;20.48;13.13;;;0.90;99.90;;;;;;4913899;28;20086;-64
2022/03/08 04:43:07;;;;;;;17.15;11.93;;;0.90;99.90;;;;;;4912575;29;20429;-64
2022/03/08 04:45:33;;;;;;;19.85;12.18;;;0.90;99.90;;;;;;4926701;28;20051;-64
2022/03/08 04:47:59;;;;;;;23.05;12.77;;;0.90;99.90;;;;;;4943052;28;20069;-64
2022/03/08 04:50:25;;;;;;;19.60;12.82;;;0.80;99.90;;;;;;4941957;28;20071;-65
2022/03/08 04:52:51;;;;;;;21.80;13.27;;;0.90;99.90;;;;;;4911323;28;20051;-64
2022/03/08 04:55:18;;;;;;;19.55;12.90;;;0.80;99.90;;;;;;4936118;28;20047;-64
2022/03/08 04:57:44;;;;;;;21.20;12.65;;;0.80;99.90;;;;;;4927642;28;20118;-64
2022/03/08 05:00:12;;;;;;;24.08;12.60;;;0.80;99.90;;;;;;4925729;28;20082;-65
2022/03/08 05:02:43;;;;;;;20.55;12.82;;;0.80;99.90;;;;;;4942129;28;20051;-65
2022/03/08 05:05:11;;;;;;;22.05;13.90;;;0.80;99.90;;;;;;4940619;28;20055;-64
2022/03/08 05:07:37;;;;;;;20.45;13.25;;;0.80;99.90;;;;;;4942399;28;20577;-64
2022/03/08 05:10:04;;;;;;;19.10;12.70;;;0.80;99.90;;;;;;4935605;28;20035;-64
2022/03/08 05:12:30;;;;;;;20.25;12.40;;;0.80;99.90;;;;;;4942419;28;20486;-64
2022/03/08 05:14:57;;;;;;;21.65;13.32;;;0.80;99.90;;;;;;4942647;28;20071;-64
2022/03/08 05:17:23;;;;;;;19.10;12.90;;;0.80;99.90;;;;;;4926782;29;20070;-64
2022/03/08 05:19:49;;;;;;;22.63;13.55;;;0.70;99.90;;;;;;4932880;28;20051;-64
2022/03/08 05:22:14;;;;;;;22.27;13.05;;;0.70;99.90;;;;;;4942501;28;20051;-64
2022/03/08 05:24:40;;;;;;;26.05;13.63;;;0.70;99.90;;;;;;4926057;28;20556;-64
2022/03/08 05:27:07;;;;;;;20.85;13.52;;;0.70;99.90;;;;;;4958930;28;20047;-64
2022/03/08 05:29:34;;;;;;;22.73;14.25;;;0.70;99.90;;;;;;4918067;28;20035;-64
2022/03/08 05:32:00;;;;;;;20.95;12.90;;;0.70;99.90;;;;;;4943678;28;20482;-64
2022/03/08 05:34:26;;;;;;;18.88;13.07;;;0.60;99.90;;;;;;4941871;28;20043;-64
2022/03/08 05:36:52;;;;;;;21.98;14.05;;;0.70;99.90;;;;;;4942971;28;20054;-65
2022/03/08 05:39:18;;;;;;;23.33;13.50;;;0.70;99.90;;;;;;4957260;28;20051;-64
2022/03/08 05:41:44;;;;;;;22.13;14.10;;;0.70;99.90;;;;;;4927314;29;20569;-64
2022/03/08 05:44:10;;;;;;;23.00;13.98;;;0.60;99.90;;;;;;4933046;28;20058;-64
2022/03/08 05:46:36;;;;;;;20.75;14.15;;;0.60;99.90;;;;;;4911222;28;20063;-64
2022/03/08 05:49:02;;;;;;;22.63;13.75;;;0.60;99.90;;;;;;4907701;28;20039;-64
2022/03/08 05:51:28;;;;;;;21.88;13.40;;;0.60;99.90;;;;;;4923816;28;20497;-64
2022/03/08 05:53:54;;;;;;;20.55;13.70;;;0.60;99.90;;;;;;4942905;28;20177;-64
2022/03/08 05:56:20;;;;;;;22.88;13.55;;;0.60;99.90;;;;;;4944341;28;20054;-64
2022/03/08 05:58:46;;;;;;;21.88;14.05;;;0.50;99.90;;;;;;4927039;28;20054;-65
2022/03/08 06:01:11;;;;;;;23.13;14.20;;;0.50;99.90;;;;;;4942076;28;20061;-64
2022/03/08 06:03:38;;;;;;;23.60;14.75;;;0.50;99.90;;;;;;4942710;28;20101;-64
2022/03/08 06:06:04;;;;;;;24.55;14.55;;;0.50;99.90;;;;;;4943644;28;20567;-64
2022/03/08 06:08:30;;;;;;;22.08;14.05;;;0.50;99.90;;;;;;4941904;28;20134;-64
2022/03/08 06:10:55;;;;;;;23.33;15.25;;;0.50;99.90;;;;;;4940123;28;20078;-64
2022/03/08 06:13:21;;;;;;;23.63;14.43;;;0.50;99.90;;;;;;4912443;29;20163;-64
2022/03/08 06:15:47;;;;;;;23.27;14.15;;;0.50;99.90;;;;;;4922361;28;20502;-64
2022/03/08 06:18:13;;;;;;;24.85;13.70;;;0.50;99.90;;;;;;4933413;28;20118;-64
2022/03/08 06:20:39;;;;;;;24.58;14.68;;;0.50;99.90;;;;;;4923522;28;20166;-64
2022/03/08 06:23:05;;;;;;;25.95;13.52;;;0.50;99.90;;;;;;4941809;28;20054;-64
2022/03/08 06:25:30;;;;;;;21.52;14.20;;;0.50;99.90;;;;;;4931582;28;20054;-63
2022/03/08 06:27:56;;;;;;;22.30;13.90;;;0.50;99.90;;;;;;4942972;28;20127;-64
2022/03/08 06:30:22;;;;;;;21.92;14.02;;;0.50;99.90;;;;;;4930262;28;20051;-64
2022/03/08 06:32:48;;;;;;;20.40;13.77;;;0.50;99.90;;;;;;4910391;29;20775;-64
2022/03/08 06:35:14;;;;;;;22.90;13.48;;;0.50;99.90;;;;;;4939674;28;20055;-64
2022/03/08 06:37:40;;;;;;;27.73;14.32;;;0.50;99.90;;;;;;4944230;28;20146;-64
2022/03/08 06:40:09;;;;;;;22.35;14.57;;;0.50;99.90;;;;;;4939129;28;20109;-64
2022/03/08 06:42:36;;;;;;;20.45;13.48;;;0.50;99.90;;;;;;4959193;28;20051;-64
2022/03/08 06:45:04;;;;;;;22.73;14.07;;;0.60;99.90;;;;;;4940452;28;20576;-64
2022/03/08 06:47:30;;;;;;;21.60;14.73;;;0.50;99.90;;;;;;4942994;28;20048;-63
2022/03/08 06:49:56;;;;;;;30.33;14.27;;;0.50;99.90;;;;;;4937920;28;20057;-64
2022/03/08 06:52:22;;;;;;;21.40;13.88;;;0.50;99.90;;;;;;4934527;28;20054;-63
2022/03/08 06:54:47;;;;;;;23.85;14.35;;;0.60;99.90;;;;;;4924268;28;20051;-64
2022/03/08 06:57:13;;;;;;;20.33;12.95;;;0.50;99.90;;;;;;4939568;28;20054;-63
2022/03/08 06:59:39;;;;;;;23.10;13.70;;;0.60;99.90;;;;;;4925031;29;20109;-64
2022/03/08 07:02:05;;;;;;;20.13;13.85;;;0.60;99.90;;;;;;4944099;29;20141;-64
2022/03/08 07:04:31;;;;;;;21.70;13.80;;;0.60;99.90;;;;;;4925246;28;20062;-63
2022/03/08 07:06:57;;;;;;;28.80;13.45;;;0.70;99.90;;;;;;4922529;28;20051;-64
2022/03/08 07:09:23;;;;;;;22.80;14.13;;;0.70;99.90;;;;;;4925343;28;20534;-64
2022/03/08 07:11:49;;;;;;;23.08;13.20;;;0.70;99.90;;;;;;4938470;28;20055;-64
2022/03/08 07:14:17;;;;;;;21.63;13.15;;;0.80;99.90;;;;;;4943106;28;20048;-63
2022/03/08 07:16:44;;;;;;;25.85;14.30;;;0.80;99.90;;;;;;4925763;28;20094;-63
2022/03/08 07:19:11;;;;;;;21.02;13.48;;;0.90;99.90;;;;;;4942505;28;20062;-63
2022/03/08 07:21:37;;;;;;;24.38;13.38;;;0.90;99.90;;;;;;4943868;28;20109;-63
2022/03/08 07:24:03;;;;;;;20.80;13.18;;;1.00;99.90;;;;;;4945208;28;20054;-63
2022/03/08 07:26:29;;;;;;;20.23;13.55;;;1.00;99.90;;;;;;4927091;29;20117;-63
2022/03/08 07:28:55;;;;;;;17.88;13.07;;;1.10;99.90;;;;;;4941872;28;20466;-63
2022/03/08 07:31:20;;;;;;;20.45;12.90;;;1.10;99.90;;;;;;4933953;28;20062;-63
2022/03/08 07:33:46;;;;;;;18.85;13.02;;;1.20;99.90;;;;;;4958328;28;20047;-62
2022/03/08 07:36:12;;;;;;;18.98;12.45;;;1.20;99.90;;;;;;4943636;28;20039;-62
2022/03/08 07:38:38;;;;;;;18.10;12.23;;;1.30;99.90;;;;;;4937330;28;20054;-63
2022/03/08 07:41:04;;;;;;;20.83;12.77;;;1.30;99.90;;;;;;4947751;28;20118;-63
2022/03/08 07:43:31;;;;;;;16.88;11.60;;;1.40;99.90;;;;;;4956144;28;20047;-63
2022/03/08 07:45:56;;;;;;;17.25;11.40;;;1.40;99.90;;;;;;4944623;28;20659;-63
2022/03/08 07:48:22;;;;;;;19.50;12.70;;;1.50;99.90;;;;;;4945439;28;20049;-63
2022/03/08 07:50:48;;;;;;;22.75;12.77;;;1.50;99.90;;;;;;4929564;28;20047;-63
2022/03/08 07:53:14;;;;;;;19.67;12.52;;;1.50;99.90;;;;;;4934289;28;20047;-63
2022/03/08 07:55:40;;;;;;;18.65;12.30;;;1.60;99.90;;;;;;4912029;29;20047;-63
2022/03/08 07:58:11;;;;;;;18.92;12.07;;;1.70;99.90;;;;;;4920939;28;20133;-63
2022/03/08 08:00:38;;;;;;;19.98;12.60;;;1.70;99.90;;;;;;4926156;28;20047;-63
2022/03/08 08:03:04;;;;;;;27.23;12.45;;;1.80;99.90;;;;;;4943739;28;20514;-63
2022/03/08 08:05:30;;;;;;;18.13;11.63;;;1.80;99.90;;;;;;4945141;28;20167;-63
2022/03/08 08:07:56;;;;;;;21.27;12.35;;;1.90;99.90;;;;;;4943785;28;20509;-63
2022/03/08 08:10:21;;;;;;;19.33;12.50;;;1.90;99.90;;;;;;4935641;28;20046;-63
2022/03/08 08:12:47;;;;;;;19.20;12.05;;;2.10;99.90;;;;;;4934577;28;20047;-63
2022/03/08 08:15:13;;;;;;;19.08;12.35;;;2.10;99.90;;;;;;4937269;28;20047;-63
2022/03/08 08:17:39;;;;;;;19.98;11.90;;;2.20;99.90;;;;;;4942555;28;20043;-63
2022/03/08 08:20:05;;;;;;;17.05;11.95;;;2.30;99.90;;;;;;4942236;28;20055;-63
2022/03/08 08:22:31;;;;;;;19.17;11.65;;;2.40;99.90;;;;;;4910316;28;20054;-63
2022/03/08 08:24:57;;;;;;;20.33;11.77;;;2.50;99.90;;;;;;4918554;28;20055;-63
2022/03/08 08:27:23;;;;;;;19.15;11.63;;;2.60;99.90;;;;;;4945172;28;20102;-63
2022/03/08 08:29:48;;;;;;;19.83;11.55;;;2.70;99.90;;;;;;4932200;28;20131;-63
2022/03/08 08:32:14;;;;;;;17.33;11.18;;;2.80;99.90;;;;;;4944104;28;20047;-63
2022/03/08 08:34:40;;;;;;;16.85;11.77;;;2.90;99.90;;;;;;4943025;28;20047;-63
2022/03/08 08:37:07;;;;;;;18.25;11.70;;;3.10;99.90;;;;;;4929449;29;20047;-63
2022/03/08 08:39:32;;;;;;;17.88;11.60;;;3.30;99.90;;;;;;4926690;29;20422;-63
2022/03/08 08:41:58;;;;;;;15.95;11.18;;;3.50;99.50;;;;;;4927788;28;20425;-63
2022/03/08 08:44:27;;;;;;;17.15;12.10;;;3.70;99.40;;;;;;4939103;28;20468;-63
2022/03/08 08:46:54;;;;;;;16.77;11.27;;;3.70;98.80;;;;;;4944674;28;20130;-63
2022/03/08 08:49:20;;;;;;;16.75;11.38;;;3.90;98.50;;;;;;4939624;28;20537;-63
2022/03/08 08:51:45;;;;;;;20.02;10.90;;;4.10;97.90;;;;;;4941939;28;20054;-63
2022/03/08 08:54:11;;;;;;;15.65;11.23;;;4.20;97.60;;;;;;4946419;28;20458;-63
2022/03/08 08:56:38;;;;;;;15.80;11.18;;;4.30;96.80;;;;;;4942746;28;20303;-63
2022/03/08 08:59:05;;;;;;;16.33;10.52;;;4.50;96.30;;;;;;4941188;28;20082;-63
2022/03/08 09:01:31;;;;;;;16.02;11.43;;;4.60;95.90;;;;;;4927453;29;20085;-63
2022/03/08 09:03:57;;;;;;;16.65;10.85;;;4.80;95.80;;;;;;4943892;28;20111;-63
2022/03/08 09:06:23;;;;;;;17.00;10.55;;;4.90;94.90;;;;;;4941368;28;20163;-63
2022/03/08 09:08:49;;;;;;;14.70;10.63;;;5.00;94.30;;;;;;4927414;28;20134;-63
2022/03/08 09:11:14;;;;;;;14.90;10.32;;;5.20;93.60;;;;;;4942415;28;20593;-63
2022/03/08 09:13:43;;;;;;;15.10;10.38;;;5.20;92.90;;;;;;4944684;28;20043;-63
2022/03/08 09:16:09;;;;;;;18.20;10.57;;;5.30;92.50;;;;;;4934110;28;20145;-63
2022/03/08 09:18:35;;;;;;;15.85;10.07;;;5.50;92.00;;;;;;4939952;28;20130;-63
2022/03/08 09:21:01;;;;;;;14.98;11.10;;;5.50;91.70;;;;;;4941653;28;20101;-63
2022/03/08 09:23:27;;;;;;;20.00;10.20;;;5.70;91.30;;;;;;4941550;28;20102;-63
2022/03/08 09:25:53;;;;;;;13.50;9.82;;;5.90;90.50;;;;;;4925183;28;20411;-63
2022/03/08 09:28:18;;;;;;;14.45;10.05;;;6.00;90.00;;;;;;4942026;28;20150;-63
2022/03/08 09:30:46;;;;;;;14.43;9.82;;;6.10;89.30;;;;;;4940952;28;20051;-63
2022/03/08 09:33:12;;;;;;;16.30;10.25;;;6.20;88.30;;;;;;4943418;28;20073;-63
2022/03/08 09:35:38;;;;;;;14.98;9.80;;;6.50;88.20;;;;;;4925944;28;20055;-63
2022/03/08 09:38:04;;;;;;;13.07;9.15;;;6.50;87.40;;;;;;4925925;29;20058;-63
2022/03/08 09:40:30;;;;;;;16.63;10.45;;;6.60;86.60;;;;;;4940868;28;20043;-64
2022/03/08 09:42:57;;;;;;;14.88;9.63;;;6.80;85.90;;;;;;4943726;28;20046;-63
2022/03/08 09:45:22;;;;;;;13.00;9.52;;;6.90;85.30;;;;;;4943545;28;20057;-63
2022/03/08 09:47:49;;;;;;;16.48;9.38;;;7.00;83.60;;;;;;4931777;28;20047;-63
2022/03/08 09:50:16;;;;;;;13.23;8.98;;;7.10;82.60;;;;;;4943372;28;22469;-63
2022/03/08 09:52:42;;;;;;;13.30;8.57;;;7.10;81.20;;;;;;4943423;29;20043;-63
2022/03/08 09:55:16;;;;;;;14.07;9.70;;;7.20;80.40;;;;;;4935241;28;20110;-64
2022/03/08 09:57:43;;;;;;;12.93;9.30;;;7.30;80.40;;;;;;4944532;28;20521;-63
2022/03/08 10:00:10;;;;;;;14.68;9.20;;;7.50;79.40;;;;;;4943260;28;20047;-63
2022/03/08 10:02:45;;;;;;;13.25;9.23;;;7.50;78.20;;;;;;4943736;28;20043;-64
2022/03/08 10:05:11;;;;;;;14.00;8.73;;;7.70;77.80;;;;;;4945323;28;20082;-63
2022/03/08 10:07:37;;;;;;;14.35;8.73;;;7.70;76.60;;;;;;4942865;28;20059;-63
2022/03/08 10:10:04;;;;;;;15.20;9.70;;;7.80;76.70;;;;;;4925729;29;20046;-64
2022/03/08 10:12:30;;;;;;;12.35;8.85;;;7.90;76.80;;;;;;4949984;28;20083;-64
2022/03/08 10:14:56;;;;;;;12.77;7.97;;;8.00;77.00;;;;;;4940616;28;20577;-64
2022/03/08 10:17:39;;;;;;;13.02;8.80;;;8.10;76.40;;;;;;4941574;28;20561;-63
2022/03/08 10:20:10;;;;;;;11.77;7.72;;;8.30;75.70;;;;;;4941849;28;20610;-63
2022/03/08 10:22:40;;;;;;;13.60;7.45;;;8.40;73.80;;;;;;4941797;28;20081;-63
2022/03/08 10:25:17;;;;;;;10.02;7.30;;;8.50;73.40;;;;;;4909971;28;22974;-64
2022/03/08 10:28:04;;;;;;;11.15;7.53;;;8.60;72.40;;;;;;4941938;28;20634;-64
2022/03/08 10:30:42;;;;;;;12.15;8.30;;;8.70;72.10;;;;;;4940103;28;20482;-64
2022/03/08 10:33:08;;;;;;;11.13;7.85;;;8.80;70.70;;;;;;4941808;28;21228;-64
2022/03/08 10:35:39;;;;;;;10.27;7.60;;;8.90;70.90;;;;;;4929998;28;20501;-64
2022/03/08 10:38:08;;;;;;;9.73;7.55;;;9.10;70.50;;;;;;4922762;28;22061;-64
2022/03/08 10:40:35;;;;;;;9.27;7.53;;;9.20;70.20;;;;;;4924271;28;20078;-64
2022/03/08 10:43:06;;;;;;;9.25;7.35;;;9.30;68.40;;;;;;4942733;28;20197;-64
2022/03/08 10:45:35;;;;;;;9.43;6.47;;;9.30;66.70;;;;;;4918775;28;20830;-64
2022/03/08 10:48:06;;;;;;;9.52;6.88;;;9.30;65.70;;;;;;4941894;28;20083;-64
2022/03/08 10:50:34;;;;;;;9.45;7.00;;;9.30;65.60;;;;;;4925432;29;20051;-64
2022/03/08 10:53:02;;;;;;;11.02;7.22;;;9.40;65.00;;;;;;4942645;28;20075;-64
2022/03/08 10:55:30;;;;;;;9.00;6.75;;;9.50;65.30;;;;;;4933503;28;20043;-64
2022/03/08 10:57:57;;;;;;;11.05;7.15;;;9.60;65.30;;;;;;4949221;28;20054;-63
2022/03/08 11:00:29;;;;;;;11.27;7.00;;;9.80;65.70;;;;;;4941307;28;20054;-64
2022/03/08 11:03:03;;;;;;;12.18;7.38;;;10.00;65.70;;;;;;4931970;29;20406;-64
2022/03/08 11:05:32;;;;;;;9.93;7.32;;;10.10;66.20;;;;;;4942086;28;20058;-63
2022/03/08 11:07:58;;;;;;;9.10;6.75;;;10.30;64.60;;;;;;4939425;28;20175;-64
2022/03/08 11:10:26;;;;;;;8.60;6.70;;;10.30;63.70;;;;;;4938904;28;20058;-64
2022/03/08 11:12:56;;;;;;;9.15;6.45;;;10.40;63.50;;;;;;4943328;28;20082;-64
2022/03/08 11:15:23;;;;;;;12.32;6.32;;;10.50;63.30;;;;;;4925453;28;20142;-64
2022/03/08 11:17:51;;;;;;;8.20;5.50;;;10.60;62.90;;;;;;4924011;29;20043;-64
2022/03/08 11:20:19;;;;;;;7.57;5.60;;;10.70;62.90;;;;;;4939825;28;20462;-64
2022/03/08 11:22:47;;;;;;;8.15;5.80;;;10.80;61.20;;;;;;4939835;28;20601;-64
2022/03/08 11:25:17;;;;;;;8.13;5.53;;;10.90;60.30;;;;;;4934436;29;20394;-64
2022/03/08 11:27:46;;;;;;;11.90;5.65;;;10.90;59.70;;;;;;4943715;29;20667;-64
2022/03/08 11:30:22;;;;;;;9.20;5.68;;;11.00;60.20;;;;;;4927273;29;20512;-64
2022/03/08 11:33:29;;;;;;;7.90;5.53;;;11.10;61.10;;;;;;4935632;28;20055;-64
2022/03/08 11:36:17;;;;;;;6.20;5.00;;;11.20;59.70;;;;;;4936373;28;20051;-64
2022/03/08 11:38:43;;;;;;;8.38;4.80;;;11.30;58.70;;;;;;4943981;28;20054;-63
2022/03/08 11:41:09;;;;;;;7.15;4.72;;;11.30;57.30;;;;;;4931851;28;20433;-64
2022/03/08 11:43:40;;;;;;;8.15;5.55;;;11.20;56.40;;;;;;4939586;28;20039;-64
2022/03/08 11:46:18;;;;;;;6.07;4.93;;;11.20;57.10;;;;;;4942323;28;20043;-64
2022/03/08 11:48:56;;;;;;;7.55;5.57;;;11.30;57.30;;;;;;4942407;28;20086;-64
2022/03/08 11:51:24;;;;;;;9.38;5.45;;;11.40;56.40;;;;;;4915664;29;20393;-64
2022/03/08 11:54:00;;;;;;;7.45;5.32;;;11.40;56.30;;;;;;4927940;28;20055;-64
2022/03/08 11:56:26;;;;;;;8.00;5.38;;;11.50;55.70;;;;;;4921914;29;20043;-64
2022/03/08 11:58:52;;;;;;;6.93;5.78;;;11.60;57.00;;;;;;4911687;29;20094;-63
2022/03/08 12:01:30;;;;;;;9.48;5.22;;;11.70;56.50;;;;;;4934476;28;20074;-64
2022/03/08 12:04:04;;;;;;;7.57;5.68;;;11.80;56.40;;;;;;4932236;28;20102;-65
2022/03/08 12:06:32;;;;;;;9.43;5.50;;;11.80;55.70;;;;;;4937947;28;20043;-64
2022/03/08 12:09:11;;;;;;;9.63;5.55;;;11.90;56.10;;;;;;4941390;28;20047;-64
2022/03/08 12:12:06;;;;;;;6.47;5.15;;;12.00;55.50;;;;;;4940469;28;20055;-64
2022/03/08 12:14:38;;;;;;;7.78;5.40;;;12.10;54.50;;;;;;4954751;28;20502;-65
2022/03/08 12:17:13;;;;;;;7.70;5.22;;;12.20;55.00;;;;;;4924391;29;20043;-64
2022/03/08 12:19:52;;;;;;;7.93;4.85;;;12.20;55.40;;;;;;4939805;28;20048;-64
2022/03/08 12:22:21;;;;;;;7.78;4.97;;;12.40;55.20;;;;;;4940411;28;20458;-63
2022/03/08 12:24:56;;;;;;;7.45;5.18;;;12.50;55.50;;;;;;4944155;28;20061;-64
2022/03/08 12:27:24;;;;;;;7.75;5.10;;;12.70;55.00;;;;;;4943183;28;20054;-64
2022/03/08 12:29:54;;;;;;;7.15;4.57;;;12.80;54.70;;;;;;4942958;28;20054;-64
2022/03/08 12:32:33;;;;;;;6.30;4.68;;;12.90;54.30;;;;;;4944694;28;20102;-64
2022/03/08 12:35:04;;;;;;;5.13;4.60;;;12.90;53.40;;;;;;4927593;28;20058;-64
2022/03/08 12:37:44;;;;;;;6.50;4.75;;;12.90;52.90;;;;;;4946016;28;20577;-64
2022/03/08 12:40:29;;;;;;;13.40;4.70;;;12.90;52.20;;;;;;4944900;28;20101;-65
2022/03/08 12:43:08;;;;;;;8.27;4.53;;;12.90;53.00;;;;;;4945074;28;20102;-64